createdAt,value
2023-05-17T00:00:52.229Z,11.84
2023-05-17T00:03:19.602Z,11.73
2023-05-17T00:05:47.122Z,11.70
2023-05-17T00:08:14.865Z,11.53
2023-05-17T00:10:43.371Z,11.63
2023-05-17T00:13:10.858Z,11.56
2023-05-17T00:15:38.321Z,11.56
2023-05-17T00:18:05.974Z,11.55
2023-05-17T00:20:33.858Z,11.64
2023-05-17T00:23:01.165Z,11.67
2023-05-17T00:25:28.673Z,11.59
2023-05-17T00:27:56.622Z,11.66
2023-05-17T00:30:24.162Z,11.62
2023-05-17T00:32:51.573Z,11.65
2023-05-17T00:35:19.068Z,11.69
2023-05-17T00:37:48.112Z,11.45
2023-05-17T00:40:16.486Z,11.45
2023-05-17T00:42:43.992Z,11.26
2023-05-17T00:45:11.513Z,11.35
2023-05-17T00:47:39.226Z,11.49
2023-05-17T00:50:07.247Z,11.36
2023-05-17T00:52:36.083Z,11.48
2023-05-17T00:55:03.730Z,11.50
2023-05-17T00:57:32.377Z,11.57
2023-05-17T01:00:02.229Z,11.54
2023-05-17T01:02:29.919Z,11.30
2023-05-17T01:04:57.953Z,11.43
2023-05-17T01:07:25.719Z,11.55
2023-05-17T01:09:53.580Z,11.42
2023-05-17T01:12:52.103Z,11.61
2023-05-17T01:15:32.145Z,11.53
2023-05-17T01:18:10.633Z,11.69
2023-05-17T01:20:41.528Z,11.77
2023-05-17T01:23:37.120Z,11.60
2023-05-17T01:26:17.772Z,11.59
2023-05-17T01:28:53.673Z,11.70
2023-05-17T01:31:22.841Z,11.74
2023-05-17T01:33:50.828Z,11.41
2023-05-17T01:36:18.407Z,11.27
2023-05-17T01:38:45.688Z,11.28
2023-05-17T01:41:22.849Z,11.25
2023-05-17T01:44:10.172Z,11.33
2023-05-17T01:46:41.994Z,11.50
2023-05-17T01:49:15.449Z,11.49
2023-05-17T01:52:10.045Z,11.55
2023-05-17T01:54:47.392Z,11.52
2023-05-17T01:57:16.018Z,11.65
2023-05-17T01:59:47.644Z,11.73
2023-05-17T02:02:15.023Z,11.80
2023-05-17T02:04:42.563Z,11.41
2023-05-17T02:07:10.078Z,11.58
2023-05-17T02:09:37.674Z,11.62
2023-05-17T02:12:05.958Z,11.51
2023-05-17T02:14:34.705Z,11.41
2023-05-17T02:17:02.294Z,11.64
2023-05-17T02:19:29.854Z,11.89
2023-05-17T02:21:58.247Z,11.85
2023-05-17T02:24:25.693Z,11.89
2023-05-17T02:26:53.077Z,12.14
2023-05-17T02:29:21.003Z,11.97
2023-05-17T02:31:48.425Z,11.84
2023-05-17T02:34:17.246Z,11.90
2023-05-17T02:36:44.637Z,11.95
2023-05-17T02:39:13.442Z,11.36
2023-05-17T02:41:40.907Z,11.47
2023-05-17T02:44:08.403Z,11.63
2023-05-17T02:46:38.330Z,11.68
2023-05-17T02:49:05.826Z,11.34
2023-05-17T02:51:33.141Z,11.41
2023-05-17T02:54:01.295Z,11.39
2023-05-17T02:56:28.601Z,11.32
2023-05-17T02:58:57.671Z,11.21
2023-05-17T03:01:25.046Z,11.36
2023-05-17T03:03:53.258Z,11.33
2023-05-17T03:06:21.334Z,11.54
2023-05-17T03:08:50.519Z,11.60
2023-05-17T03:11:17.836Z,11.60
2023-05-17T03:13:46.562Z,11.31
2023-05-17T03:16:14.336Z,11.34
2023-05-17T03:18:41.993Z,11.41
2023-05-17T03:21:09.433Z,11.30
2023-05-17T03:23:37.069Z,11.02
2023-05-17T03:26:04.630Z,11.13
2023-05-17T03:28:37.096Z,11.05
2023-05-17T03:31:05.054Z,11.18
2023-05-17T03:33:34.067Z,11.36
2023-05-17T03:36:02.066Z,11.43
2023-05-17T03:38:29.934Z,11.11
2023-05-17T03:40:57.285Z,11.20
2023-05-17T03:43:24.689Z,11.43
2023-05-17T03:45:52.202Z,11.16
2023-05-17T03:48:20.008Z,10.71
2023-05-17T03:50:47.490Z,10.34
2023-05-17T03:53:14.851Z,10.45
2023-05-17T03:55:42.853Z,10.46
2023-05-17T03:58:10.576Z,10.44
2023-05-17T04:00:37.862Z,10.62
2023-05-17T04:03:13.049Z,10.83
2023-05-17T04:05:41.578Z,10.72
2023-05-17T04:08:09.619Z,10.81
2023-05-17T04:10:36.972Z,10.67
2023-05-17T04:13:05.135Z,10.68
2023-05-17T04:15:32.552Z,10.52
2023-05-17T04:18:00.460Z,10.69
2023-05-17T04:20:28.074Z,10.83
2023-05-17T04:22:55.416Z,11.01
2023-05-17T04:25:24.917Z,10.92
2023-05-17T04:27:52.456Z,11.08
2023-05-17T04:30:21.643Z,10.92
2023-05-17T04:32:51.959Z,10.63
2023-05-17T04:35:20.069Z,10.68
2023-05-17T04:37:51.634Z,10.51
2023-05-17T04:40:21.845Z,10.48
2023-05-17T04:42:49.952Z,10.43
2023-05-17T04:45:18.366Z,10.48
2023-05-17T04:47:45.835Z,10.34
2023-05-17T04:50:15.442Z,10.47
2023-05-17T04:52:43.226Z,10.42
2023-05-17T04:55:11.814Z,10.40
2023-05-17T04:57:39.286Z,10.43
2023-05-17T05:00:10.206Z,10.52
2023-05-17T05:02:40.209Z,10.78
2023-05-17T05:05:09.711Z,10.76
2023-05-17T05:07:39.980Z,10.78
2023-05-17T05:10:09.011Z,10.80
2023-05-17T05:12:37.872Z,10.99
2023-05-17T05:15:06.555Z,10.95
2023-05-17T05:17:35.124Z,10.71
2023-05-17T05:20:02.930Z,10.72
2023-05-17T05:22:30.394Z,10.88
2023-05-17T05:24:58.912Z,10.67
2023-05-17T05:27:26.342Z,10.56
2023-05-17T05:29:55.130Z,10.74
2023-05-17T05:32:23.822Z,10.99
2023-05-17T05:34:51.233Z,10.88
2023-05-17T05:37:19.672Z,10.92
2023-05-17T05:39:47.101Z,11.00
2023-05-17T05:42:14.496Z,10.74
2023-05-17T05:44:41.753Z,10.86
2023-05-17T05:47:09.775Z,11.21
2023-05-17T05:49:37.287Z,11.13
2023-05-17T05:52:05.001Z,10.99
2023-05-17T05:54:32.732Z,11.29
2023-05-17T05:57:00.868Z,11.33
2023-05-17T05:59:28.368Z,11.24
2023-05-17T06:01:57.622Z,11.05
2023-05-17T06:04:33.047Z,10.88
2023-05-17T06:07:12.082Z,10.91
2023-05-17T06:09:39.536Z,10.79
2023-05-17T06:12:08.978Z,10.78
2023-05-17T06:14:37.585Z,10.83
2023-05-17T06:17:05.078Z,10.81
2023-05-17T06:19:32.650Z,10.91
2023-05-17T06:22:00.211Z,10.83
2023-05-17T06:24:27.632Z,11.05
2023-05-17T06:26:55.018Z,10.92
2023-05-17T06:29:22.355Z,10.89
2023-05-17T06:31:49.791Z,10.86
2023-05-17T06:34:17.109Z,11.18
2023-05-17T06:36:44.419Z,11.22
2023-05-17T06:39:11.882Z,11.12
2023-05-17T06:41:39.263Z,11.16
2023-05-17T06:44:09.324Z,11.33
2023-05-17T06:46:36.606Z,11.55
2023-05-17T06:49:04.420Z,11.53
2023-05-17T06:51:31.788Z,11.41
2023-05-17T06:53:59.192Z,11.38
2023-05-17T06:56:26.880Z,11.42
2023-05-17T06:58:54.604Z,11.61
2023-05-17T07:01:22.224Z,11.31
2023-05-17T07:03:49.716Z,11.09
2023-05-17T07:06:17.272Z,11.03
2023-05-17T07:08:44.652Z,11.08
2023-05-17T07:11:11.923Z,11.20
2023-05-17T07:13:39.262Z,11.44
2023-05-17T07:16:08.544Z,11.29
2023-05-17T07:18:35.927Z,11.27
2023-05-17T07:21:03.260Z,11.42
2023-05-17T07:23:30.571Z,11.63
2023-05-17T07:25:57.934Z,11.83
2023-05-17T07:28:25.498Z,12.07
2023-05-17T07:30:52.762Z,12.01
2023-05-17T07:33:20.241Z,12.04
2023-05-17T07:35:47.526Z,12.35
2023-05-17T07:38:14.938Z,12.38
2023-05-17T07:40:42.231Z,12.44
2023-05-17T07:43:09.750Z,12.41
2023-05-17T07:45:37.057Z,12.25
2023-05-17T07:48:04.707Z,12.56
2023-05-17T07:50:32.447Z,12.92
2023-05-17T07:52:59.800Z,12.75
2023-05-17T07:55:27.268Z,12.68
2023-05-17T07:57:55.047Z,13.05
2023-05-17T08:00:22.942Z,13.20
2023-05-17T08:02:50.579Z,13.43
2023-05-17T08:05:17.866Z,13.31
2023-05-17T08:07:45.278Z,13.33
2023-05-17T08:10:12.617Z,13.27
2023-05-17T08:12:40.253Z,13.03
2023-05-17T08:15:07.696Z,12.66
2023-05-17T08:17:35.094Z,12.72
2023-05-17T08:20:02.410Z,12.81
2023-05-17T08:22:29.750Z,12.87
2023-05-17T08:24:57.083Z,12.56
2023-05-17T08:27:27.128Z,12.64
2023-05-17T08:29:55.570Z,12.91
2023-05-17T08:32:23.797Z,12.65
2023-05-17T08:34:51.149Z,12.85
2023-05-17T08:37:18.916Z,12.56
2023-05-17T08:39:46.535Z,12.71
2023-05-17T08:42:15.185Z,12.63
2023-05-17T08:44:43.425Z,12.44
2023-05-17T08:47:12.301Z,12.58
2023-05-17T08:49:43.112Z,12.73
2023-05-17T08:52:11.158Z,12.66
2023-05-17T08:54:38.803Z,12.69
2023-05-17T08:57:07.302Z,13.01
2023-05-17T08:59:35.178Z,12.92
2023-05-17T09:02:05.773Z,12.85
2023-05-17T09:04:33.396Z,13.12
2023-05-17T09:07:00.829Z,13.25
2023-05-17T09:09:28.496Z,12.90
2023-05-17T09:11:55.785Z,13.22
2023-05-17T09:14:23.314Z,13.41
2023-05-17T09:16:58.109Z,13.82
2023-05-17T09:19:25.658Z,13.91
2023-05-17T09:21:54.381Z,13.92
2023-05-17T09:24:30.262Z,13.99
2023-05-17T09:27:03.296Z,13.99
2023-05-17T09:29:32.509Z,13.81
2023-05-17T09:32:16.464Z,13.68
2023-05-17T09:34:45.857Z,13.66
2023-05-17T09:37:15.341Z,13.95
2023-05-17T09:39:44.914Z,14.13
2023-05-17T09:42:13.163Z,14.22
2023-05-17T09:44:55.548Z,14.05
2023-05-17T09:47:26.049Z,13.95
2023-05-17T09:49:53.555Z,13.92
2023-05-17T09:52:21.435Z,13.95
2023-05-17T09:54:55.740Z,14.14
2023-05-17T09:57:23.570Z,14.13
2023-05-17T09:59:51.716Z,14.51
2023-05-17T10:02:23.176Z,14.17
2023-05-17T10:04:51.752Z,14.10
2023-05-17T10:07:20.410Z,14.13
2023-05-17T10:09:49.973Z,14.11
2023-05-17T10:12:18.765Z,14.05
2023-05-17T10:14:46.169Z,13.99
2023-05-17T10:17:14.832Z,14.06
2023-05-17T10:19:42.574Z,14.22
2023-05-17T10:22:22.364Z,14.26
2023-05-17T10:24:54.139Z,14.29
2023-05-17T10:27:22.176Z,14.39
2023-05-17T10:29:50.746Z,14.51
2023-05-17T10:32:19.801Z,14.53
2023-05-17T10:34:58.030Z,14.51
2023-05-17T10:37:37.181Z,14.61
2023-05-17T10:40:05.022Z,14.53
2023-05-17T10:42:32.432Z,14.30
2023-05-17T10:45:01.303Z,14.57
2023-05-17T10:47:32.944Z,14.79
2023-05-17T10:50:00.571Z,14.81
2023-05-17T10:52:27.908Z,15.03
2023-05-17T10:54:57.021Z,15.37
2023-05-17T10:57:49.266Z,15.11
2023-05-17T11:00:21.618Z,15.28
2023-05-17T11:02:50.676Z,15.27
2023-05-17T11:05:25.274Z,15.20
2023-05-17T11:07:52.788Z,15.17
2023-05-17T11:10:20.301Z,15.13
2023-05-17T11:12:54.005Z,15.31
2023-05-17T11:15:24.909Z,15.52
2023-05-17T11:17:57.004Z,15.60
2023-05-17T11:20:28.248Z,15.72
2023-05-17T11:22:58.863Z,15.75
2023-05-17T11:25:31.767Z,16.01
2023-05-17T11:27:59.804Z,15.87
2023-05-17T11:30:31.268Z,15.81
2023-05-17T11:33:00.620Z,15.78
2023-05-17T11:35:31.517Z,15.61
2023-05-17T11:38:19.554Z,15.59
2023-05-17T11:40:48.576Z,15.52
2023-05-17T11:43:18.472Z,16.00
2023-05-17T11:45:57.743Z,16.03
2023-05-17T11:48:26.781Z,16.10
2023-05-17T11:50:55.401Z,16.12
2023-05-17T11:53:24.841Z,16.25
2023-05-17T11:55:52.725Z,16.34
2023-05-17T11:58:24.157Z,16.29
2023-05-17T12:00:58.061Z,16.15
2023-05-17T12:03:28.829Z,16.19
2023-05-17T12:06:17.003Z,16.19
2023-05-17T12:08:45.956Z,16.12
2023-05-17T12:11:16.882Z,15.91
2023-05-17T12:13:46.854Z,16.04
2023-05-17T12:16:17.799Z,16.06
2023-05-17T12:18:49.677Z,15.85
2023-05-17T12:21:18.311Z,15.91
2023-05-17T12:23:48.860Z,15.99
2023-05-17T12:26:23.383Z,16.21
2023-05-17T12:28:54.441Z,16.11
2023-05-17T12:31:34.905Z,15.96
2023-05-17T12:34:09.181Z,16.08
2023-05-17T12:36:39.648Z,16.08
2023-05-17T12:39:09.851Z,16.26
2023-05-17T12:41:38.576Z,16.53
2023-05-17T12:44:15.157Z,16.77
2023-05-17T12:46:44.367Z,16.86
2023-05-17T12:49:12.333Z,16.84
2023-05-17T12:51:44.708Z,16.70
2023-05-17T12:54:14.182Z,16.91
2023-05-17T12:56:43.655Z,17.09
2023-05-17T12:59:18.454Z,16.99
2023-05-17T13:01:47.372Z,16.35
2023-05-17T13:04:15.744Z,16.33
2023-05-17T13:06:48.999Z,16.28
2023-05-17T13:09:18.596Z,16.24
2023-05-17T13:11:57.223Z,16.25
2023-05-17T13:14:41.985Z,16.44
2023-05-17T13:17:13.444Z,16.42
2023-05-17T13:19:41.013Z,16.63
2023-05-17T13:22:08.895Z,16.53
2023-05-17T13:24:37.821Z,16.75
2023-05-17T13:27:06.062Z,16.95
2023-05-17T13:29:40.247Z,16.65
2023-05-17T13:32:09.119Z,16.51
2023-05-17T13:34:36.439Z,16.70
2023-05-17T13:37:04.797Z,16.66
2023-05-17T13:39:32.157Z,16.68
2023-05-17T13:42:00.195Z,17.02
2023-05-17T13:44:28.015Z,16.93
2023-05-17T13:46:55.637Z,17.22
2023-05-17T13:49:22.959Z,17.59
2023-05-17T13:51:50.712Z,17.45
2023-05-17T13:54:20.175Z,17.30
2023-05-17T13:56:47.532Z,17.41
2023-05-17T13:59:15.979Z,17.14
2023-05-17T14:01:43.889Z,16.74
2023-05-17T14:04:11.751Z,16.67
2023-05-17T14:06:39.191Z,16.93
2023-05-17T14:09:06.664Z,16.76
2023-05-17T14:11:34.398Z,16.96
2023-05-17T14:14:01.742Z,17.07
2023-05-17T14:16:28.927Z,17.26
2023-05-17T14:18:56.359Z,16.91
2023-05-17T14:21:23.723Z,16.89
2023-05-17T14:23:51.024Z,16.91
2023-05-17T14:26:18.369Z,16.93
2023-05-17T14:28:45.627Z,16.75
2023-05-17T14:31:12.953Z,16.73
2023-05-17T14:33:40.315Z,16.91
2023-05-17T14:36:07.672Z,16.98
2023-05-17T14:38:35.046Z,16.63
2023-05-17T14:41:02.420Z,16.81
2023-05-17T14:43:29.837Z,17.19
2023-05-17T14:45:57.088Z,17.46
2023-05-17T14:48:24.552Z,17.45
2023-05-17T14:50:53.377Z,17.59
2023-05-17T14:53:21.130Z,17.69
2023-05-17T14:55:48.659Z,17.61
2023-05-17T14:58:15.978Z,17.35
2023-05-17T15:00:48.382Z,17.18
2023-05-17T15:03:21.934Z,17.21
2023-05-17T15:05:56.755Z,17.08
2023-05-17T15:08:24.030Z,16.91
2023-05-17T15:10:51.487Z,17.07
2023-05-17T15:13:18.864Z,16.92
2023-05-17T15:15:46.896Z,16.85
2023-05-17T15:18:14.815Z,16.79
2023-05-17T15:20:42.221Z,16.81
2023-05-17T15:23:09.589Z,16.65
2023-05-17T15:25:37.021Z,16.48
2023-05-17T15:28:04.595Z,16.56
2023-05-17T15:30:32.423Z,16.69
2023-05-17T15:33:01.362Z,16.71
2023-05-17T15:35:29.232Z,16.97
2023-05-17T15:37:58.707Z,17.02
2023-05-17T15:40:26.098Z,16.85
2023-05-17T15:42:53.430Z,17.27
2023-05-17T15:45:22.115Z,17.24
2023-05-17T15:47:49.719Z,17.44
2023-05-17T15:50:17.190Z,17.59
2023-05-17T15:52:44.553Z,17.46
2023-05-17T15:55:12.886Z,17.34
2023-05-17T15:57:42.696Z,17.49
2023-05-17T16:00:10.566Z,17.47
2023-05-17T16:02:37.918Z,17.72
2023-05-17T16:05:05.975Z,17.85
2023-05-17T16:07:33.337Z,17.65
2023-05-17T16:10:00.612Z,17.86
2023-05-17T16:12:28.103Z,17.65
2023-05-17T16:14:55.521Z,17.34
2023-05-17T16:17:22.863Z,17.17
2023-05-17T16:19:50.176Z,17.22
2023-05-17T16:22:17.641Z,17.43
2023-05-17T16:24:45.040Z,17.56
2023-05-17T16:27:12.332Z,17.36
2023-05-17T16:29:40.395Z,17.17
2023-05-17T16:32:08.553Z,17.16
2023-05-17T16:34:36.487Z,17.12
2023-05-17T16:37:05.244Z,17.40
2023-05-17T16:39:33.191Z,17.10
2023-05-17T16:42:00.776Z,17.14
2023-05-17T16:44:28.138Z,17.11
2023-05-17T16:46:55.516Z,17.20
2023-05-17T16:49:22.859Z,17.20
2023-05-17T16:51:51.917Z,17.15
2023-05-17T16:54:19.666Z,16.98
2023-05-17T16:56:46.943Z,17.06
2023-05-17T16:59:15.837Z,16.92
2023-05-17T17:01:43.193Z,16.83
2023-05-17T17:04:10.588Z,16.92
2023-05-17T17:06:38.191Z,16.80
2023-05-17T17:09:08.347Z,16.77
2023-05-17T17:11:35.813Z,16.86
2023-05-17T17:14:03.071Z,16.74
2023-05-17T17:16:31.703Z,16.81
2023-05-17T17:18:59.569Z,16.68
2023-05-17T17:21:26.999Z,16.71
2023-05-17T17:23:54.377Z,16.88
2023-05-17T17:26:22.081Z,16.83
2023-05-17T17:28:49.445Z,16.71
2023-05-17T17:31:18.269Z,16.63
2023-05-17T17:33:46.032Z,16.62
2023-05-17T17:36:13.523Z,16.64
2023-05-17T17:38:40.833Z,16.76
2023-05-17T17:41:08.137Z,16.66
2023-05-17T17:43:35.793Z,16.86
2023-05-17T17:46:03.448Z,16.82
2023-05-17T17:48:30.740Z,16.76
2023-05-17T17:50:59.138Z,16.65
2023-05-17T17:53:26.608Z,16.64
2023-05-17T17:55:53.909Z,16.45
2023-05-17T17:58:21.262Z,16.33
2023-05-17T18:00:48.690Z,16.45
2023-05-17T18:03:16.349Z,16.43
2023-05-17T18:05:43.769Z,16.36
2023-05-17T18:08:11.577Z,16.60
2023-05-17T18:10:38.911Z,16.61
2023-05-17T18:13:06.120Z,16.63
2023-05-17T18:15:33.406Z,16.71
2023-05-17T18:18:00.789Z,16.48
2023-05-17T18:20:28.243Z,16.54
2023-05-17T18:22:55.759Z,17.37
2023-05-17T18:25:23.011Z,17.99
2023-05-17T18:27:50.534Z,18.25
2023-05-17T18:30:18.587Z,18.01
2023-05-17T18:32:46.192Z,18.62
2023-05-17T18:35:13.698Z,18.68
2023-05-17T18:37:40.925Z,18.53
2023-05-17T18:40:08.664Z,18.20
2023-05-17T18:42:35.999Z,17.81
2023-05-17T18:45:04.341Z,17.14
2023-05-17T18:47:31.794Z,16.97
2023-05-17T18:49:59.619Z,17.28
2023-05-17T18:52:26.925Z,16.83
2023-05-17T18:54:54.204Z,16.90
2023-05-17T18:57:21.557Z,16.70
2023-05-17T18:59:49.069Z,16.36
2023-05-17T19:02:16.440Z,16.41
2023-05-17T19:04:44.129Z,16.35
2023-05-17T19:07:11.555Z,16.43
2023-05-17T19:09:38.907Z,16.47
2023-05-17T19:12:06.754Z,16.12
2023-05-17T19:14:34.069Z,16.44
2023-05-17T19:17:02.673Z,16.30
2023-05-17T19:19:31.334Z,16.21
2023-05-17T19:22:00.708Z,16.12
2023-05-17T19:24:29.069Z,15.99
2023-05-17T19:26:56.400Z,15.99
2023-05-17T19:29:23.838Z,16.03
2023-05-17T19:31:51.383Z,15.86
2023-05-17T19:34:18.722Z,15.77
2023-05-17T19:36:46.107Z,15.79
2023-05-17T19:39:13.446Z,15.55
2023-05-17T19:41:41.201Z,15.42
2023-05-17T19:44:08.589Z,15.49
2023-05-17T19:46:36.082Z,15.68
2023-05-17T19:49:03.622Z,15.59
2023-05-17T19:51:31.680Z,15.45
2023-05-17T19:53:58.933Z,15.30
2023-05-17T19:56:26.320Z,15.26
2023-05-17T19:58:54.199Z,15.38
2023-05-17T20:01:21.897Z,15.25
2023-05-17T20:03:49.463Z,15.22
2023-05-17T20:06:16.842Z,15.25
2023-05-17T20:08:45.107Z,15.48
2023-05-17T20:11:12.731Z,15.36
2023-05-17T20:13:40.447Z,15.20
2023-05-17T20:16:14.860Z,15.16
2023-05-17T20:18:43.808Z,15.12
2023-05-17T20:21:15.077Z,15.22
2023-05-17T20:23:42.784Z,15.23
2023-05-17T20:26:16.584Z,15.03
2023-05-17T20:28:44.648Z,14.95
2023-05-17T20:31:12.165Z,14.98
2023-05-17T20:33:39.579Z,14.92
2023-05-17T20:36:07.114Z,14.95
2023-05-17T20:38:34.342Z,14.96
2023-05-17T20:41:01.774Z,14.88
2023-05-17T20:43:29.632Z,14.91
2023-05-17T20:45:56.988Z,14.99
2023-05-17T20:48:24.317Z,15.04
2023-05-17T20:50:51.636Z,14.89
2023-05-17T20:53:19.422Z,14.85
2023-05-17T20:55:46.704Z,14.85
2023-05-17T20:58:13.928Z,14.94
2023-05-17T21:00:41.463Z,15.02
2023-05-17T21:03:11.694Z,15.04
2023-05-17T21:05:38.801Z,14.58
2023-05-17T21:08:07.432Z,14.40
2023-05-17T21:10:38.132Z,14.39
2023-05-17T21:13:06.136Z,14.58
2023-05-17T21:15:33.534Z,14.78
2023-05-17T21:18:01.097Z,14.88
2023-05-17T21:20:28.475Z,14.57
2023-05-17T21:22:55.881Z,14.24
2023-05-17T21:25:23.285Z,14.15
2023-05-17T21:27:51.380Z,14.38
2023-05-17T21:30:18.985Z,14.48
2023-05-17T21:32:46.327Z,14.50
2023-05-17T21:35:13.753Z,14.40
2023-05-17T21:37:42.134Z,14.42
2023-05-17T21:40:10.168Z,14.54
2023-05-17T21:42:37.524Z,14.75
2023-05-17T21:45:05.404Z,14.48
2023-05-17T21:47:32.764Z,14.38
2023-05-17T21:50:00.117Z,14.38
2023-05-17T21:52:27.586Z,14.44
2023-05-17T21:54:54.957Z,14.52
2023-05-17T21:57:23.306Z,13.99
2023-05-17T21:59:51.189Z,13.77
2023-05-17T22:02:18.686Z,13.79
2023-05-17T22:04:46.033Z,13.83
2023-05-17T22:07:14.064Z,14.05
2023-05-17T22:09:41.489Z,14.23
2023-05-17T22:12:09.358Z,14.31
2023-05-17T22:14:36.800Z,14.18
2023-05-17T22:17:08.523Z,13.70
2023-05-17T22:19:41.325Z,13.71
2023-05-17T22:22:08.714Z,13.80
2023-05-17T22:24:36.232Z,13.73
2023-05-17T22:27:03.865Z,13.54
2023-05-17T22:29:31.265Z,13.68
2023-05-17T22:31:58.813Z,13.54
2023-05-17T22:34:26.397Z,13.42
2023-05-17T22:36:55.103Z,13.33
2023-05-17T22:39:22.429Z,13.38
2023-05-17T22:41:49.796Z,13.31
2023-05-17T22:44:17.064Z,13.45
2023-05-17T22:46:46.771Z,13.49
2023-05-17T22:49:14.192Z,13.11
2023-05-17T22:51:42.578Z,12.93
2023-05-17T22:54:09.949Z,13.03
2023-05-17T22:56:37.248Z,13.15
2023-05-17T22:59:04.844Z,13.22
2023-05-17T23:01:32.163Z,13.06
2023-05-17T23:03:59.572Z,12.79
2023-05-17T23:06:26.939Z,12.91
2023-05-17T23:08:55.017Z,12.74
2023-05-17T23:11:22.356Z,12.66
2023-05-17T23:13:49.683Z,12.70
2023-05-17T23:16:17.949Z,12.75
2023-05-17T23:18:46.425Z,12.79
2023-05-17T23:21:13.875Z,12.57
2023-05-17T23:23:41.146Z,12.56
2023-05-17T23:26:08.473Z,12.75
2023-05-17T23:28:37.741Z,12.45
2023-05-17T23:31:05.819Z,12.75
2023-05-17T23:33:33.280Z,12.76
2023-05-17T23:36:00.583Z,12.98
2023-05-17T23:38:27.954Z,12.98
2023-05-17T23:40:56.387Z,12.99
2023-05-17T23:43:23.628Z,12.71
2023-05-17T23:45:51.325Z,12.58
2023-05-17T23:48:20.734Z,12.40
2023-05-17T23:50:48.131Z,12.40
2023-05-17T23:53:18.447Z,12.40
2023-05-17T23:55:46.190Z,12.62
2023-05-17T23:58:13.438Z,12.40
